Time;durP1;ratioP1;P1;durP2;ratioP2;P2;SDS_P1;SDS_P2;PMS_P1;PMS_P2;Temp;Humidity;BMP_temperature;BMP_pressure;BME280_temperature;BME280_humidity;BME280_pressure;Samples;Min_cycle;Max_cycle;Signal;HPM_P1;HPM_P2
2021/08/18 00:01:42;;;;;;;3.08;2.10;;;17.40;99.90;;;;;;4190513;28;20082;-65
2021/08/18 00:03:43;;;;;;;3.13;2.03;;;17.40;99.90;;;;;;4190190;28;20538;-65
2021/08/18 00:05:44;;;;;;;3.05;2.20;;;17.50;99.90;;;;;;4189933;28;20036;-66
2021/08/18 00:07:45;;;;;;;7.75;2.70;;;17.40;99.90;;;;;;4189140;28;20094;-66
2021/08/18 00:09:48;;;;;;;4.10;2.38;;;17.40;99.90;;;;;;4190461;28;20028;-65
2021/08/18 00:11:49;;;;;;;2.88;1.90;;;17.40;99.90;;;;;;4189401;28;20894;-64
2021/08/18 00:13:50;;;;;;;2.45;1.83;;;17.40;99.90;;;;;;4189975;28;20589;-65
2021/08/18 00:15:52;;;;;;;7.18;1.90;;;17.40;99.90;;;;;;4189680;28;20025;-65
2021/08/18 00:17:59;;;;;;;2.83;1.85;;;17.40;99.90;;;;;;4190714;28;20182;-66
2021/08/18 00:20:01;;;;;;;3.55;2.08;;;17.50;99.90;;;;;;4189691;28;20041;-65
2021/08/18 00:22:02;;;;;;;2.75;2.03;;;17.40;99.90;;;;;;4189403;28;20036;-65
2021/08/18 00:24:04;;;;;;;2.70;1.60;;;17.50;99.90;;;;;;4189525;28;20086;-65
2021/08/18 00:26:05;;;;;;;3.47;1.92;;;17.50;99.90;;;;;;4189838;28;20032;-65
2021/08/18 00:28:07;;;;;;;2.92;1.95;;;17.50;99.90;;;;;;4189617;28;20052;-65
2021/08/18 00:30:09;;;;;;;3.13;1.83;;;17.40;99.90;;;;;;4189346;28;20101;-66
2021/08/18 00:32:10;;;;;;;3.78;1.58;;;17.50;99.90;;;;;;4189713;28;20037;-65
2021/08/18 00:34:12;;;;;;;2.83;1.60;;;17.50;99.90;;;;;;4189682;28;20733;-66
2021/08/18 00:36:13;;;;;;;2.78;1.98;;;17.50;99.90;;;;;;4189335;28;20424;-65
2021/08/18 00:38:14;;;;;;;2.55;1.63;;;17.50;99.90;;;;;;4187454;28;20036;-65
2021/08/18 00:40:16;;;;;;;4.63;1.65;;;17.50;99.90;;;;;;4188137;28;20048;-65
2021/08/18 00:42:18;;;;;;;1.80;1.33;;;17.50;99.90;;;;;;4189291;28;20554;-65
2021/08/18 00:44:20;;;;;;;3.28;1.70;;;17.50;99.90;;;;;;4189769;28;20032;-65
2021/08/18 00:46:21;;;;;;;2.17;1.60;;;17.50;99.90;;;;;;4188932;28;20028;-65
2021/08/18 00:48:22;;;;;;;2.47;2.15;;;17.50;99.90;;;;;;4189613;28;20044;-64
2021/08/18 00:50:25;;;;;;;3.97;1.92;;;17.50;99.90;;;;;;4189468;28;20054;-66
2021/08/18 00:52:26;;;;;;;3.70;1.52;;;17.50;99.90;;;;;;4188031;28;20040;-65
2021/08/18 00:54:27;;;;;;;2.75;1.92;;;17.50;99.90;;;;;;4189177;28;20024;-65
2021/08/18 00:56:30;;;;;;;2.83;2.30;;;17.50;99.90;;;;;;4189805;28;20070;-65
2021/08/18 00:58:33;;;;;;;5.32;2.15;;;17.60;99.90;;;;;;4188960;28;20431;-65
2021/08/18 01:00:34;;;;;;;2.80;1.85;;;17.60;99.90;;;;;;4189166;28;20466;-66
2021/08/18 01:02:37;;;;;;;2.67;2.38;;;17.70;99.90;;;;;;4188613;28;20052;-64
2021/08/18 01:04:38;;;;;;;5.65;2.65;;;17.60;99.90;;;;;;4189722;28;20048;-65
2021/08/18 01:06:43;;;;;;;4.03;2.10;;;17.60;99.90;;;;;;4189110;28;20606;-66
2021/08/18 01:08:45;;;;;;;3.15;1.98;;;17.60;99.90;;;;;;4189000;28;20028;-64
2021/08/18 01:10:46;;;;;;;4.28;2.05;;;17.60;99.90;;;;;;4187145;28;20044;-66
2021/08/18 01:12:48;;;;;;;3.95;1.80;;;17.60;99.90;;;;;;4187852;28;20040;-66
2021/08/18 01:14:49;;;;;;;3.10;1.60;;;17.60;99.90;;;;;;4189375;28;20028;-65
2021/08/18 01:16:50;;;;;;;3.90;2.05;;;17.70;99.90;;;;;;4188569;28;20028;-65
2021/08/18 01:18:51;;;;;;;1.60;1.50;;;17.60;99.90;;;;;;4189074;28;20086;-66
2021/08/18 01:20:52;;;;;;;3.22;1.70;;;17.70;99.90;;;;;;4188854;28;20090;-66
2021/08/18 01:22:54;;;;;;;1.75;1.48;;;17.70;99.90;;;;;;4189219;28;20048;-68
2021/08/18 01:24:55;;;;;;;2.50;1.80;;;17.60;99.90;;;;;;4188279;28;20086;-65
2021/08/18 01:26:58;;;;;;;2.97;1.73;;;17.70;99.90;;;;;;4189002;28;20141;-65
2021/08/18 01:29:00;;;;;;;1.77;1.20;;;17.70;99.90;;;;;;4188806;28;20028;-65
2021/08/18 01:31:01;;;;;;;3.15;1.60;;;17.70;99.90;;;;;;4189687;28;20040;-66
2021/08/18 01:33:09;;;;;;;2.05;1.40;;;17.60;99.90;;;;;;4188499;28;20063;-65
2021/08/18 01:35:20;;;;;;;1.70;1.58;;;17.60;99.90;;;;;;4189175;28;20032;-64
2021/08/18 01:37:21;;;;;;;4.75;2.60;;;17.60;99.90;;;;;;4189307;28;20028;-65
2021/08/18 01:39:22;;;;;;;2.88;1.60;;;17.60;99.90;;;;;;4188587;28;20419;-64
2021/08/18 01:41:24;;;;;;;4.80;2.80;;;17.60;99.90;;;;;;4189216;28;20032;-66
2021/08/18 01:43:25;;;;;;;2.63;1.75;;;17.60;99.90;;;;;;4188971;28;20045;-64
2021/08/18 01:45:32;;;;;;;3.20;2.13;;;17.60;99.90;;;;;;4188889;28;20074;-64
2021/08/18 01:47:33;;;;;;;2.85;1.70;;;17.70;99.90;;;;;;4187963;28;20753;-64
2021/08/18 01:49:34;;;;;;;3.70;2.15;;;17.70;99.90;;;;;;4189009;28;20090;-65
2021/08/18 01:51:35;;;;;;;5.45;2.00;;;17.60;99.90;;;;;;4188682;28;20118;-66
2021/08/18 01:53:45;;;;;;;2.90;2.00;;;17.60;99.90;;;;;;4189082;28;20828;-65
2021/08/18 01:55:47;;;;;;;3.80;2.40;;;17.70;99.90;;;;;;4188829;28;20032;-65
2021/08/18 01:57:49;;;;;;;4.72;2.72;;;17.60;99.90;;;;;;4188886;28;20281;-66
2021/08/18 01:59:51;;;;;;;4.18;2.45;;;17.60;99.90;;;;;;4190796;28;20028;-67
2021/08/18 02:01:52;;;;;;;4.03;2.20;;;17.60;99.90;;;;;;4191364;28;20401;-65
2021/08/18 02:03:53;;;;;;;3.15;2.47;;;17.60;99.90;;;;;;4191102;28;20044;-65
2021/08/18 02:05:54;;;;;;;4.00;2.33;;;17.60;99.90;;;;;;4192558;28;20074;-65
2021/08/18 02:07:55;;;;;;;5.18;1.95;;;17.70;99.90;;;;;;4191752;28;20649;-66
2021/08/18 02:09:56;;;;;;;4.55;2.45;;;17.70;99.90;;;;;;4191464;28;20438;-67
2021/08/18 02:11:58;;;;;;;6.95;3.00;;;17.70;99.90;;;;;;4192313;28;20070;-66
2021/08/18 02:13:59;;;;;;;3.33;2.22;;;17.70;99.90;;;;;;4192188;28;20793;-65
2021/08/18 02:16:00;;;;;;;2.95;2.40;;;17.70;99.90;;;;;;4192068;28;20028;-65
2021/08/18 02:18:02;;;;;;;3.75;2.45;;;17.70;99.90;;;;;;4191832;28;20036;-66
2021/08/18 02:20:06;;;;;;;2.33;2.10;;;17.70;99.90;;;;;;4192010;28;20086;-66
2021/08/18 02:22:07;;;;;;;4.60;2.05;;;17.70;99.90;;;;;;4191414;28;20036;-66
2021/08/18 02:24:08;;;;;;;5.32;2.17;;;17.70;99.90;;;;;;4191484;28;20102;-66
2021/08/18 02:26:09;;;;;;;3.75;2.00;;;17.70;99.90;;;;;;4191825;28;20078;-66
2021/08/18 02:28:11;;;;;;;5.13;1.95;;;17.60;99.90;;;;;;4192159;28;20044;-66
2021/08/18 02:30:16;;;;;;;2.83;2.38;;;17.60;99.90;;;;;;4191528;28;20546;-66
2021/08/18 02:32:17;;;;;;;4.00;2.25;;;17.60;99.90;;;;;;4190649;28;20037;-66
2021/08/18 02:34:19;;;;;;;3.05;2.58;;;17.60;99.90;;;;;;4191291;28;20054;-66
2021/08/18 02:36:20;;;;;;;3.88;2.30;;;17.60;99.90;;;;;;4191589;28;20085;-65
2021/08/18 02:38:21;;;;;;;3.58;2.45;;;17.60;99.90;;;;;;4191032;28;20036;-65
2021/08/18 02:40:22;;;;;;;4.35;2.42;;;17.60;99.90;;;;;;4191641;28;20067;-65
2021/08/18 02:42:24;;;;;;;4.32;2.40;;;17.60;99.90;;;;;;4191253;28;20446;-65
2021/08/18 02:44:25;;;;;;;4.00;2.20;;;17.60;99.90;;;;;;4191926;28;20221;-66
2021/08/18 02:46:26;;;;;;;2.10;1.90;;;17.60;99.90;;;;;;4191458;28;20032;-65
2021/08/18 02:48:27;;;;;;;3.58;2.08;;;17.60;99.90;;;;;;4191542;28;20093;-66
2021/08/18 02:50:30;;;;;;;3.72;2.28;;;17.60;99.90;;;;;;4189329;28;20052;-65
2021/08/18 02:52:32;;;;;;;2.90;2.60;;;17.60;99.90;;;;;;4190993;28;20493;-66
2021/08/18 02:54:34;;;;;;;5.38;2.75;;;17.60;99.90;;;;;;4191233;28;20070;-65
2021/08/18 02:56:35;;;;;;;4.13;2.45;;;17.50;99.90;;;;;;4191070;28;20089;-66
2021/08/18 02:58:36;;;;;;;6.13;3.03;;;17.50;99.90;;;;;;4191231;28;20470;-66
2021/08/18 03:00:37;;;;;;;3.08;2.40;;;17.50;99.90;;;;;;4190725;28;20036;-66
2021/08/18 03:02:38;;;;;;;5.05;2.30;;;17.40;99.90;;;;;;4191600;28;20141;-66
2021/08/18 03:04:39;;;;;;;3.28;2.13;;;17.40;99.90;;;;;;4190597;28;20138;-65
2021/08/18 03:06:41;;;;;;;3.80;2.38;;;17.40;99.90;;;;;;4191055;28;20028;-66
2021/08/18 03:08:42;;;;;;;3.95;2.60;;;17.50;99.90;;;;;;4191310;28;20025;-66
2021/08/18 03:10:44;;;;;;;2.78;2.50;;;17.50;99.90;;;;;;4190187;28;20127;-66
2021/08/18 03:12:46;;;;;;;3.70;2.25;;;17.50;99.90;;;;;;4190042;28;20029;-65
2021/08/18 03:14:48;;;;;;;2.53;2.20;;;17.50;99.90;;;;;;4191046;28;20024;-67
2021/08/18 03:16:50;;;;;;;3.17;2.30;;;17.60;99.90;;;;;;4190388;28;20029;-67
2021/08/18 03:18:51;;;;;;;4.43;2.38;;;17.50;99.90;;;;;;4190870;28;20021;-67
2021/08/18 03:20:52;;;;;;;3.65;2.20;;;17.50;99.90;;;;;;4190932;28;20496;-66
2021/08/18 03:22:53;;;;;;;3.70;2.53;;;17.50;99.90;;;;;;4189949;28;20062;-66
2021/08/18 03:24:54;;;;;;;3.33;2.10;;;17.50;99.90;;;;;;4191032;28;20037;-66
2021/08/18 03:26:55;;;;;;;3.80;2.45;;;17.50;99.90;;;;;;4189488;28;20031;-68
2021/08/18 03:28:57;;;;;;;3.17;2.03;;;17.50;99.90;;;;;;4190574;28;20025;-67
2021/08/18 03:30:58;;;;;;;2.70;2.38;;;17.40;99.90;;;;;;4190293;28;20106;-66
2021/08/18 03:32:59;;;;;;;6.05;2.90;;;17.50;99.90;;;;;;4190542;28;20086;-67
2021/08/18 03:35:00;;;;;;;4.72;2.30;;;17.40;99.90;;;;;;4190207;28;20074;-67
2021/08/18 03:37:02;;;;;;;3.40;2.33;;;17.40;99.90;;;;;;4190531;28;20560;-66
2021/08/18 03:39:03;;;;;;;5.07;2.58;;;17.40;99.90;;;;;;4190076;28;20032;-66
2021/08/18 03:41:04;;;;;;;4.43;2.58;;;17.40;99.90;;;;;;4191011;28;20040;-66
2021/08/18 03:43:05;;;;;;;4.88;3.08;;;17.40;99.90;;;;;;4190116;28;20058;-65
2021/08/18 03:45:07;;;;;;;7.22;3.88;;;17.40;99.90;;;;;;4190573;28;20491;-66
2021/08/18 03:47:09;;;;;;;4.35;2.70;;;17.40;99.90;;;;;;4188553;28;20078;-66
2021/08/18 03:49:10;;;;;;;5.00;2.72;;;17.40;99.90;;;;;;4190091;28;20036;-66
2021/08/18 03:51:11;;;;;;;4.40;2.70;;;17.40;99.90;;;;;;4190087;28;20399;-66
2021/08/18 03:53:12;;;;;;;3.80;2.50;;;17.40;99.90;;;;;;4189917;28;20082;-65
2021/08/18 03:55:14;;;;;;;3.22;2.60;;;17.40;99.90;;;;;;4189933;28;20044;-66
2021/08/18 03:57:15;;;;;;;4.95;2.60;;;17.40;99.90;;;;;;4188110;28;20050;-66
2021/08/18 03:59:16;;;;;;;3.25;2.40;;;17.50;99.90;;;;;;4188723;28;20020;-65
2021/08/18 04:01:18;;;;;;;3.00;2.40;;;17.40;99.90;;;;;;4188741;28;20040;-65
2021/08/18 04:03:19;;;;;;;4.60;2.65;;;17.40;99.90;;;;;;4190136;28;20082;-65
2021/08/18 04:05:20;;;;;;;2.80;2.33;;;17.40;99.90;;;;;;4189665;28;20074;-67
2021/08/18 04:07:21;;;;;;;7.25;2.88;;;17.50;99.90;;;;;;4190047;28;20024;-66
2021/08/18 04:09:22;;;;;;;3.65;2.65;;;17.50;99.90;;;;;;4189664;28;20094;-65
2021/08/18 04:11:24;;;;;;;3.65;2.53;;;17.50;99.90;;;;;;4186502;28;20084;-66
2021/08/18 04:13:25;;;;;;;4.10;3.38;;;17.60;99.90;;;;;;4186292;28;20028;-65
2021/08/18 04:15:38;;;;;;;12.27;3.58;;;17.60;99.90;;;;;;4185438;28;20032;-64
2021/08/18 04:17:40;;;;;;;10.30;4.40;;;17.50;99.90;;;;;;4184590;28;20102;-65
2021/08/18 04:19:41;;;;;;;5.53;3.88;;;17.50;99.90;;;;;;4186326;28;20482;-65
2021/08/18 04:21:42;;;;;;;6.70;3.50;;;17.50;99.90;;;;;;4184580;28;20447;-64
2021/08/18 04:23:43;;;;;;;7.80;3.65;;;17.50;99.90;;;;;;4183800;28;20086;-64
2021/08/18 04:25:44;;;;;;;5.32;3.67;;;17.60;99.90;;;;;;4185113;28;20082;-63
2021/08/18 04:27:45;;;;;;;10.80;4.10;;;17.60;99.90;;;;;;4176767;28;20106;-61
2021/08/18 04:29:46;;;;;;;5.85;3.55;;;17.60;99.90;;;;;;4185419;28;20048;-63
2021/08/18 04:31:48;;;;;;;7.05;3.95;;;17.60;99.90;;;;;;4187400;28;20074;-63
2021/08/18 04:33:49;;;;;;;9.45;4.18;;;17.60;99.90;;;;;;4189024;28;20094;-63
2021/08/18 04:35:50;;;;;;;8.30;4.38;;;17.60;99.90;;;;;;4188400;28;20086;-63
2021/08/18 04:37:51;;;;;;;5.68;3.30;;;17.70;99.90;;;;;;4182738;28;20071;-62
2021/08/18 04:39:52;;;;;;;5.43;3.28;;;17.70;99.90;;;;;;4185645;28;20059;-63
2021/08/18 04:41:53;;;;;;;5.85;2.97;;;17.70;99.90;;;;;;4184693;28;20086;-66
2021/08/18 04:43:54;;;;;;;9.73;4.10;;;17.70;99.90;;;;;;4184483;28;20032;-66
2021/08/18 04:45:56;;;;;;;4.47;3.72;;;17.70;99.90;;;;;;4184404;28;20094;-64
2021/08/18 04:47:57;;;;;;;3.92;3.40;;;17.70;99.90;;;;;;4167299;28;20060;-66
2021/08/18 04:49:58;;;;;;;5.25;3.00;;;17.70;99.90;;;;;;4183039;28;20090;-67
2021/08/18 04:51:59;;;;;;;4.38;3.20;;;17.60;99.90;;;;;;4179891;28;20075;-66
2021/08/18 04:54:00;;;;;;;3.53;3.22;;;17.60;99.90;;;;;;4182544;28;20500;-66
2021/08/18 04:56:02;;;;;;;6.97;3.35;;;17.50;99.90;;;;;;4182714;28;20032;-66
2021/08/18 04:58:04;;;;;;;5.53;3.72;;;17.50;99.90;;;;;;4177942;28;20094;-66
2021/08/18 05:00:07;;;;;;;5.97;3.90;;;17.60;99.90;;;;;;4182904;28;20054;-66
2021/08/18 05:02:08;;;;;;;8.75;3.95;;;17.60;99.90;;;;;;4186149;28;20052;-64
2021/08/18 05:04:09;;;;;;;4.65;3.50;;;17.60;99.90;;;;;;4187352;28;20071;-66
2021/08/18 05:06:10;;;;;;;5.00;3.42;;;17.60;99.90;;;;;;4186262;28;20048;-66
2021/08/18 05:08:11;;;;;;;5.97;4.13;;;17.60;99.90;;;;;;4182209;28;20922;-68
2021/08/18 05:10:12;;;;;;;5.95;3.28;;;17.50;99.90;;;;;;4187480;28;20385;-67
2021/08/18 05:12:13;;;;;;;5.60;3.90;;;17.60;99.90;;;;;;4187882;28;20485;-65
2021/08/18 05:14:15;;;;;;;6.88;4.53;;;17.50;99.90;;;;;;4188087;28;20126;-65
2021/08/18 05:16:16;;;;;;;8.20;3.90;;;17.50;99.90;;;;;;4188958;28;20044;-66
2021/08/18 05:18:17;;;;;;;6.10;3.90;;;17.60;99.90;;;;;;4187571;28;20423;-66
2021/08/18 05:20:19;;;;;;;7.32;3.78;;;17.60;99.90;;;;;;4188664;28;20028;-66
2021/08/18 05:22:20;;;;;;;6.50;3.92;;;17.60;99.90;;;;;;4187804;28;20044;-64
2021/08/18 05:24:21;;;;;;;7.60;3.88;;;17.60;99.90;;;;;;4188242;28;20036;-65
2021/08/18 05:26:23;;;;;;;6.65;4.57;;;17.60;99.90;;;;;;4188599;28;20041;-64
2021/08/18 05:28:24;;;;;;;10.48;6.22;;;17.60;99.90;;;;;;4188081;28;20032;-65
2021/08/18 05:30:25;;;;;;;7.63;5.70;;;17.60;99.90;;;;;;4188523;28;20098;-65
2021/08/18 05:32:27;;;;;;;9.90;5.95;;;17.60;99.90;;;;;;4187694;28;20447;-65
2021/08/18 05:34:28;;;;;;;8.45;6.18;;;17.60;99.90;;;;;;4188489;28;20040;-65
2021/08/18 05:36:29;;;;;;;7.18;5.38;;;17.60;99.90;;;;;;4187984;28;20082;-66
2021/08/18 05:38:30;;;;;;;11.15;6.00;;;17.60;99.90;;;;;;4188545;28;20074;-64
2021/08/18 05:40:31;;;;;;;6.32;4.47;;;17.70;99.90;;;;;;4187825;28;20033;-65
2021/08/18 05:42:34;;;;;;;9.05;7.13;;;17.60;99.90;;;;;;4188680;28;20519;-64
2021/08/18 05:44:35;;;;;;;8.32;6.00;;;17.60;99.90;;;;;;4187575;28;20480;-64
2021/08/18 05:46:36;;;;;;;8.30;4.70;;;17.60;99.90;;;;;;4188827;28;20089;-65
2021/08/18 05:48:37;;;;;;;6.97;5.20;;;17.60;99.90;;;;;;4188206;28;20037;-64
2021/08/18 05:50:38;;;;;;;10.45;4.10;;;17.60;99.90;;;;;;4188194;28;20479;-65
2021/08/18 05:52:40;;;;;;;12.70;6.47;;;17.60;99.90;;;;;;4188026;28;20102;-65
2021/08/18 05:54:41;;;;;;;12.43;6.82;;;17.60;99.90;;;;;;4188304;28;20040;-66
2021/08/18 05:56:42;;;;;;;8.35;5.97;;;17.60;99.90;;;;;;4188313;28;20024;-65
2021/08/18 05:58:43;;;;;;;5.63;4.57;;;17.70;99.90;;;;;;4188529;28;20082;-65
2021/08/18 06:00:45;;;;;;;9.45;4.45;;;17.60;99.90;;;;;;4187981;28;20487;-65
2021/08/18 06:02:46;;;;;;;7.97;4.45;;;17.60;99.90;;;;;;4188210;28;20106;-65
2021/08/18 06:04:47;;;;;;;14.13;6.57;;;17.70;99.90;;;;;;4188496;28;20090;-65
2021/08/18 06:06:48;;;;;;;11.20;8.15;;;17.60;99.90;;;;;;4188454;28;20025;-65
2021/08/18 06:08:49;;;;;;;11.55;6.95;;;17.60;99.90;;;;;;4188507;28;20491;-65
2021/08/18 06:10:50;;;;;;;13.68;8.35;;;17.60;99.90;;;;;;4188378;28;20094;-66
2021/08/18 06:12:51;;;;;;;10.95;8.60;;;17.60;99.90;;;;;;4188314;28;20040;-64
2021/08/18 06:14:52;;;;;;;13.07;8.13;;;17.60;99.90;;;;;;4187614;28;20044;-65
2021/08/18 06:16:53;;;;;;;10.20;7.22;;;17.70;99.90;;;;;;4188718;28;20749;-64
2021/08/18 06:18:54;;;;;;;9.43;7.18;;;17.60;99.90;;;;;;4187779;28;20036;-66
2021/08/18 06:20:56;;;;;;;12.35;7.18;;;17.70;99.90;;;;;;4187835;28;20114;-66
2021/08/18 06:22:58;;;;;;;6.82;4.80;;;17.70;99.90;;;;;;4187232;28;20522;-67
2021/08/18 06:25:02;;;;;;;7.95;5.10;;;17.70;99.90;;;;;;4188372;28;20036;-65
2021/08/18 06:27:04;;;;;;;10.43;7.50;;;17.80;99.90;;;;;;4187916;28;20024;-66
2021/08/18 06:29:05;;;;;;;16.10;8.18;;;17.90;99.90;;;;;;4186166;28;20044;-65
2021/08/18 06:31:06;;;;;;;7.85;4.90;;;17.80;99.90;;;;;;4188334;28;20032;-65
2021/08/18 06:33:07;;;;;;;17.13;7.88;;;17.80;99.90;;;;;;4187821;28;20791;-65
2021/08/18 06:35:09;;;;;;;13.02;9.27;;;17.70;99.90;;;;;;4188182;28;20807;-65
2021/08/18 06:37:10;;;;;;;24.15;15.13;;;17.70;99.90;;;;;;4187728;28;20071;-66
2021/08/18 06:39:11;;;;;;;18.08;9.30;;;17.70;99.90;;;;;;4188573;28;20420;-66
2021/08/18 06:41:12;;;;;;;10.45;6.22;;;17.70;99.90;;;;;;4187768;28;20519;-66
2021/08/18 06:43:13;;;;;;;15.25;5.25;;;17.70;99.90;;;;;;4187987;28;20451;-66
2021/08/18 06:45:15;;;;;;;12.70;7.15;;;17.70;99.90;;;;;;4187828;28;20041;-66
2021/08/18 06:47:16;;;;;;;38.33;8.20;;;17.80;99.90;;;;;;4190973;28;20036;-66
2021/08/18 06:49:17;;;;;;;30.00;5.82;;;17.80;99.90;;;;;;4190451;28;20061;-66
2021/08/18 06:51:18;;;;;;;20.20;6.30;;;18.00;99.90;;;;;;4189298;28;20074;-66
2021/08/18 06:53:20;;;;;;;13.13;4.80;;;18.00;99.90;;;;;;4190021;28;20037;-67
2021/08/18 06:55:21;;;;;;;9.40;3.90;;;18.10;99.90;;;;;;4191255;28;20037;-66
2021/08/18 06:57:22;;;;;;;7.47;3.90;;;18.10;99.90;;;;;;4190380;28;20020;-66
2021/08/18 06:59:24;;;;;;;8.18;3.90;;;18.20;99.90;;;;;;4190907;28;20549;-67
2021/08/18 07:01:25;;;;;;;3.35;2.33;;;18.30;99.90;;;;;;4190683;28;20101;-66
2021/08/18 07:03:26;;;;;;;4.40;2.92;;;18.20;99.90;;;;;;4190399;28;20744;-65
2021/08/18 07:05:32;;;;;;;6.68;3.75;;;18.20;99.90;;;;;;4191032;28;20366;-65
2021/08/18 07:07:33;;;;;;;37.15;5.82;;;18.20;99.90;;;;;;4189757;28;20455;-66
2021/08/18 07:09:34;;;;;;;7.55;4.15;;;18.30;99.90;;;;;;4191564;28;20416;-66
2021/08/18 07:11:35;;;;;;;7.75;2.85;;;18.30;99.90;;;;;;4190346;28;20029;-66
2021/08/18 07:13:36;;;;;;;2.65;2.00;;;18.40;99.90;;;;;;4189258;28;20142;-66
2021/08/18 07:15:38;;;;;;;6.93;2.03;;;18.50;99.90;;;;;;4189762;28;20037;-67
2021/08/18 07:17:39;;;;;;;2.25;1.70;;;18.60;99.90;;;;;;4191205;28;20106;-66
2021/08/18 07:19:40;;;;;;;2.75;1.40;;;18.80;99.90;;;;;;4189614;28;20097;-66
2021/08/18 07:21:41;;;;;;;3.30;2.05;;;18.80;99.90;;;;;;4190782;28;20048;-65
2021/08/18 07:23:42;;;;;;;3.55;1.80;;;18.90;99.90;;;;;;4189721;28;20044;-65
2021/08/18 07:25:43;;;;;;;3.28;1.35;;;19.00;99.90;;;;;;4190782;28;20032;-66
2021/08/18 07:27:45;;;;;;;4.07;1.58;;;19.00;99.90;;;;;;4190351;28;20021;-66
2021/08/18 07:29:46;;;;;;;3.10;1.45;;;19.10;99.90;;;;;;4190211;28;20102;-66
2021/08/18 07:31:47;;;;;;;3.85;2.00;;;19.20;99.90;;;;;;4190001;28;20032;-64
2021/08/18 07:33:48;;;;;;;4.35;2.17;;;19.10;99.90;;;;;;4190282;28;21008;-66
2021/08/18 07:35:49;;;;;;;3.67;1.70;;;19.20;99.90;;;;;;4190409;28;20074;-65
2021/08/18 07:37:50;;;;;;;4.30;1.48;;;19.20;99.90;;;;;;4189834;28;20032;-65
2021/08/18 07:39:54;;;;;;;4.45;1.50;;;19.10;99.90;;;;;;4190280;28;20048;-66
2021/08/18 07:41:55;;;;;;;2.63;1.80;;;19.10;99.90;;;;;;4189480;28;20052;-67
2021/08/18 07:43:57;;;;;;;2.65;1.70;;;19.10;99.90;;;;;;4190318;28;20032;-66
2021/08/18 07:45:58;;;;;;;4.07;1.98;;;19.20;99.90;;;;;;4189638;28;20066;-66
2021/08/18 07:47:59;;;;;;;4.60;1.52;;;19.20;99.90;;;;;;4190367;28;20032;-66
2021/08/18 07:50:00;;;;;;;3.28;1.60;;;19.30;99.90;;;;;;4189582;28;20412;-66
2021/08/18 07:52:02;;;;;;;1.95;1.40;;;19.20;99.90;;;;;;4189331;28;20044;-65
2021/08/18 07:54:03;;;;;;;2.35;1.40;;;19.30;99.90;;;;;;4189295;28;20366;-65
2021/08/18 07:56:04;;;;;;;3.60;1.60;;;19.40;99.90;;;;;;4189606;28;20024;-63
2021/08/18 07:58:05;;;;;;;2.42;1.35;;;19.40;99.90;;;;;;4189667;28;20029;-66
2021/08/18 08:00:07;;;;;;;2.33;1.20;;;19.50;99.90;;;;;;4190016;28;20078;-63
2021/08/18 08:02:09;;;;;;;2.05;1.35;;;19.50;99.90;;;;;;4189473;28;20048;-65
2021/08/18 08:04:10;;;;;;;4.50;1.40;;;19.60;99.90;;;;;;4189928;28;20090;-65
2021/08/18 08:06:11;;;;;;;1.50;1.30;;;19.60;99.90;;;;;;4189888;28;20891;-65
2021/08/18 08:08:12;;;;;;;2.97;2.05;;;19.70;99.90;;;;;;4189770;28;20041;-65
2021/08/18 08:10:14;;;;;;;1.77;1.38;;;19.70;99.90;;;;;;4190453;28;20117;-65
2021/08/18 08:12:15;;;;;;;2.42;1.95;;;19.70;99.90;;;;;;4188118;28;20086;-65
2021/08/18 08:14:17;;;;;;;2.22;1.48;;;19.70;99.90;;;;;;4189533;28;20089;-65
2021/08/18 08:16:18;;;;;;;1.95;1.55;;;19.60;99.90;;;;;;4188916;28;20097;-65
2021/08/18 08:18:19;;;;;;;3.35;1.52;;;19.70;99.90;;;;;;4189474;28;20052;-66
2021/08/18 08:20:22;;;;;;;6.38;2.10;;;19.70;99.90;;;;;;4187898;28;20106;-66
2021/08/18 08:22:24;;;;;;;5.90;2.60;;;19.60;99.90;;;;;;4189826;28;20071;-66
2021/08/18 08:24:25;;;;;;;4.18;1.70;;;19.60;99.90;;;;;;4187867;28;20512;-65
2021/08/18 08:26:26;;;;;;;3.08;1.55;;;19.60;99.90;;;;;;4189664;28;20078;-65
2021/08/18 08:28:27;;;;;;;6.65;2.08;;;19.60;99.90;;;;;;4187497;28;20106;-64
2021/08/18 08:30:28;;;;;;;13.60;3.03;;;19.60;99.90;;;;;;4188853;28;20032;-65
2021/08/18 08:32:29;;;;;;;13.20;2.00;;;19.50;99.90;;;;;;4189299;28;20048;-65
2021/08/18 08:34:31;;;;;;;5.28;2.42;;;19.50;99.90;;;;;;4188632;28;20105;-66
2021/08/18 08:36:33;;;;;;;4.10;1.88;;;19.40;99.90;;;;;;4188773;28;20074;-66
2021/08/18 08:38:34;;;;;;;2.22;1.92;;;19.40;99.90;;;;;;4189021;28;20036;-66
2021/08/18 08:40:37;;;;;;;4.50;2.00;;;19.30;99.90;;;;;;4189469;28;20454;-66
2021/08/18 08:42:39;;;;;;;3.28;1.63;;;19.30;99.90;;;;;;4188779;28;20534;-66
2021/08/18 08:44:41;;;;;;;2.30;1.90;;;19.20;99.90;;;;;;4189682;28;20036;-65
2021/08/18 08:46:44;;;;;;;2.60;1.42;;;19.30;99.90;;;;;;4188766;28;20118;-66
2021/08/18 08:48:46;;;;;;;8.48;1.88;;;19.30;99.90;;;;;;4189276;28;20044;-65
2021/08/18 08:50:49;;;;;;;8.13;3.00;;;19.30;99.90;;;;;;4188835;28;20021;-65
2021/08/18 08:52:51;;;;;;;6.05;1.83;;;19.40;99.90;;;;;;4187625;28;20114;-66
2021/08/18 08:54:52;;;;;;;6.70;1.75;;;19.40;99.90;;;;;;4188736;28;20033;-65
2021/08/18 08:56:53;;;;;;;3.92;2.30;;;19.50;99.90;;;;;;4189201;28;20032;-66
2021/08/18 08:58:55;;;;;;;2.05;1.05;;;19.40;99.90;;;;;;4188335;28;20492;-66
2021/08/18 09:00:56;;;;;;;2.88;1.70;;;19.50;99.90;;;;;;4188979;28;20020;-65
2021/08/18 09:03:07;;;;;;;6.68;2.10;;;19.40;99.90;;;;;;4188451;28;20044;-64
2021/08/18 09:05:10;;;;;;;4.57;1.70;;;19.20;99.90;;;;;;4188755;28;20122;-65
2021/08/18 09:07:21;;;;;;;3.40;1.70;;;19.20;99.90;;;;;;4188561;28;20481;-66
2021/08/18 09:09:22;;;;;;;1.77;1.40;;;19.10;99.90;;;;;;4189070;28;20029;-65
2021/08/18 09:11:23;;;;;;;2.28;1.23;;;19.10;99.90;;;;;;4189037;28;20094;-66
2021/08/18 09:13:24;;;;;;;2.17;1.30;;;19.10;99.90;;;;;;4188561;28;20425;-65
2021/08/18 09:15:26;;;;;;;2.10;1.58;;;19.20;99.90;;;;;;4188398;28;20058;-66
2021/08/18 09:17:36;;;;;;;3.17;1.33;;;19.30;99.90;;;;;;4188749;28;20032;-66
2021/08/18 09:19:37;;;;;;;2.75;1.17;;;19.40;99.90;;;;;;4188558;28;20434;-65
2021/08/18 09:21:41;;;;;;;4.00;1.40;;;19.50;99.90;;;;;;4188299;28;20036;-64
2021/08/18 09:23:42;;;;;;;3.92;2.00;;;19.60;99.90;;;;;;4188351;28;20847;-65
2021/08/18 09:25:43;;;;;;;1.70;1.33;;;19.50;99.90;;;;;;4187749;28;20488;-65
2021/08/18 09:27:56;;;;;;;3.78;1.25;;;19.50;99.90;;;;;;4188737;28;20098;-65
2021/08/18 09:29:58;;;;;;;3.28;1.38;;;19.50;99.90;;;;;;4187225;28;20077;-65
2021/08/18 09:32:19;;;;;;;5.13;1.63;;;19.50;99.90;;;;;;4189236;28;20052;-66
2021/08/18 09:34:20;;;;;;;13.90;2.40;;;19.40;99.90;;;;;;4187847;28;20053;-66
2021/08/18 09:36:24;;;;;;;1.95;1.25;;;19.50;99.90;;;;;;4188836;28;20066;-65
2021/08/18 09:38:26;;;;;;;3.75;1.20;;;19.50;99.90;;;;;;4187705;28;20177;-64
2021/08/18 09:40:39;;;;;;;4.70;1.33;;;19.50;99.90;;;;;;4189138;28;20132;-66
2021/08/18 09:42:40;;;;;;;3.47;1.20;;;19.40;99.90;;;;;;4187901;28;20028;-66
2021/08/18 09:44:41;;;;;;;4.38;1.88;;;19.40;99.90;;;;;;4188805;28;20040;-66
2021/08/18 09:46:42;;;;;;;2.92;1.95;;;19.30;99.90;;;;;;4187446;28;20522;-66
2021/08/18 09:48:44;;;;;;;4.78;2.33;;;19.30;99.90;;;;;;4188821;28;20514;-65
2021/08/18 09:50:51;;;;;;;2.72;1.50;;;19.10;99.90;;;;;;4187607;28;20742;-66
2021/08/18 09:52:52;;;;;;;1.80;1.50;;;19.10;99.90;;;;;;4188015;28;20079;-66
2021/08/18 09:55:03;;;;;;;3.55;1.38;;;19.10;99.90;;;;;;4187338;28;20553;-65
2021/08/18 09:57:08;;;;;;;2.75;2.55;;;19.10;99.90;;;;;;4188347;28;20040;-65
2021/08/18 09:59:09;;;;;;;2.47;1.30;;;19.10;99.90;;;;;;4187777;28;20036;-66
2021/08/18 10:01:14;;;;;;;1.20;1.10;;;19.10;99.90;;;;;;4188343;28;20488;-65
2021/08/18 10:03:16;;;;;;;1.65;1.08;;;19.00;99.90;;;;;;4188062;28;20086;-65
2021/08/18 10:05:18;;;;;;;2.38;1.17;;;18.90;99.90;;;;;;4187614;28;20551;-65
2021/08/18 10:07:20;;;;;;;7.00;2.42;;;18.90;99.90;;;;;;4187857;28;20074;-65
2021/08/18 10:09:21;;;;;;;7.13;3.65;;;18.80;99.90;;;;;;4188199;28;20441;-66
2021/08/18 10:11:24;;;;;;;7.10;2.17;;;18.90;99.90;;;;;;4188564;28;20025;-65
2021/08/18 10:13:26;;;;;;;3.10;1.60;;;18.80;99.90;;;;;;4187928;28;20082;-66
2021/08/18 10:15:27;;;;;;;1.80;1.67;;;18.90;99.90;;;;;;4188384;28;20082;-65
2021/08/18 10:17:31;;;;;;;3.72;1.90;;;18.90;99.90;;;;;;4187382;28;20090;-65
2021/08/18 10:19:32;;;;;;;1.90;1.50;;;18.90;99.90;;;;;;4189285;28;20079;-64
2021/08/18 10:21:34;;;;;;;5.00;2.58;;;18.80;99.90;;;;;;4189933;28;20045;-63
2021/08/18 10:23:42;;;;;;;5.00;2.33;;;18.90;99.90;;;;;;4191415;28;20086;-65
2021/08/18 10:25:49;;;;;;;1.98;1.30;;;18.80;99.90;;;;;;4190550;28;20090;-64
2021/08/18 10:27:50;;;;;;;5.45;2.58;;;18.80;99.90;;;;;;4191762;28;20842;-65
2021/08/18 10:30:29;;;;;;;9.35;4.38;;;18.80;99.90;;;;;;4190877;28;20024;-65
2021/08/18 10:32:36;;;;;;;14.15;4.45;;;18.80;99.90;;;;;;4191241;28;20105;-65
2021/08/18 10:34:50;;;;;;;4.05;2.20;;;18.80;99.90;;;;;;4190671;28;20025;-66